createdAt,value
2022-10-02T00:01:08.006Z,14.16
2022-10-02T00:03:39.037Z,14.16
2022-10-02T00:06:14.817Z,14.19
2022-10-02T00:08:42.087Z,14.19
2022-10-02T00:11:16.624Z,14.20
2022-10-02T00:13:47.295Z,14.16
2022-10-02T00:16:24.616Z,14.14
2022-10-02T00:18:54.207Z,14.12
2022-10-02T00:21:33.680Z,14.16
2022-10-02T00:24:02.511Z,14.13
2022-10-02T00:26:34.717Z,14.12
2022-10-02T00:29:16.274Z,14.13
2022-10-02T00:31:57.111Z,14.15
2022-10-02T00:34:34.531Z,14.15
2022-10-02T00:37:10.995Z,14.14
2022-10-02T00:39:52.027Z,14.09
2022-10-02T00:42:46.993Z,14.11
2022-10-02T00:45:49.359Z,14.08
2022-10-02T00:48:31.500Z,14.04
2022-10-02T00:51:08.838Z,14.04
2022-10-02T00:53:46.617Z,14.06
2022-10-02T00:56:28.299Z,14.09
2022-10-02T00:59:38.001Z,14.09
2022-10-02T01:02:12.219Z,14.07
2022-10-02T01:04:41.272Z,14.04
2022-10-02T01:07:11.929Z,14.07
2022-10-02T01:09:41.426Z,14.08
2022-10-02T01:12:16.096Z,14.09
2022-10-02T01:14:43.006Z,14.09
2022-10-02T01:17:23.063Z,14.14
2022-10-02T01:19:50.382Z,14.15
2022-10-02T01:22:25.598Z,14.17
2022-10-02T01:24:54.883Z,14.19
2022-10-02T01:27:23.655Z,14.19
2022-10-02T01:29:55.830Z,14.18
2022-10-02T01:32:27.805Z,14.21
2022-10-02T01:34:56.405Z,14.24
2022-10-02T01:37:30.737Z,14.26
2022-10-02T01:42:52.046Z,14.25
2022-10-02T01:45:31.218Z,14.26
2022-10-02T01:48:02.826Z,14.26
2022-10-02T01:50:38.019Z,14.30
2022-10-02T01:53:13.306Z,14.33
2022-10-02T01:55:51.403Z,14.35
2022-10-02T01:58:29.764Z,14.36
2022-10-02T02:01:04.875Z,14.33
2022-10-02T02:03:42.575Z,14.31
2022-10-02T02:06:16.049Z,14.33
2022-10-02T02:08:56.497Z,14.31
2022-10-02T02:11:49.467Z,14.33
2022-10-02T02:17:10.407Z,14.31
2022-10-02T02:19:46.784Z,14.31
2022-10-02T02:33:47.374Z,14.31
2022-10-02T02:39:03.410Z,14.34
2022-10-02T02:41:41.541Z,14.39
2022-10-02T02:44:15.606Z,14.39
2022-10-02T02:47:04.414Z,14.37
2022-10-02T02:49:41.878Z,14.33
2022-10-02T03:00:59.551Z,14.31
2022-10-02T03:03:31.495Z,14.31
2022-10-02T03:08:47.884Z,14.32
2022-10-02T03:14:21.896Z,14.33
2022-10-02T03:16:58.475Z,14.35
2022-10-02T03:19:55.731Z,14.39
2022-10-02T03:25:41.922Z,14.42
2022-10-02T03:28:37.392Z,14.42
2022-10-02T03:31:16.928Z,14.38
2022-10-02T03:36:31.708Z,14.36
2022-10-02T03:39:23.600Z,14.36
2022-10-02T03:41:52.327Z,14.37
2022-10-02T03:49:41.676Z,14.35
2022-10-02T03:52:19.866Z,14.37
2022-10-02T03:54:49.318Z,14.36
2022-10-02T03:57:22.783Z,14.38
2022-10-02T03:59:57.524Z,14.36
2022-10-02T04:05:23.130Z,14.36
2022-10-02T04:07:54.972Z,14.35
2022-10-02T04:13:14.555Z,14.31
2022-10-02T04:16:01.372Z,14.31
2022-10-02T04:18:32.522Z,14.27
2022-10-02T04:21:06.090Z,14.26
2022-10-02T04:23:37.816Z,14.25
2022-10-02T04:26:15.125Z,14.23
2022-10-02T04:28:48.342Z,14.21
2022-10-02T04:31:15.271Z,14.18
2022-10-02T04:33:42.206Z,14.18
2022-10-02T04:36:27.158Z,14.20
2022-10-02T04:39:07.826Z,14.20
2022-10-02T04:41:52.837Z,14.19
2022-10-02T04:44:32.799Z,14.14
2022-10-02T04:47:18.156Z,14.12
2022-10-02T04:50:02.311Z,14.12
2022-10-02T04:52:51.911Z,14.09
2022-10-02T04:55:43.612Z,14.09
2022-10-02T04:58:35.973Z,14.06
2022-10-02T05:01:14.775Z,14.02
2022-10-02T05:04:08.542Z,14.01
2022-10-02T05:06:53.739Z,14.00
2022-10-02T05:09:28.956Z,13.99
2022-10-02T05:12:27.285Z,14.03
2022-10-02T05:15:19.600Z,14.03
2022-10-02T05:18:14.592Z,14.01
2022-10-02T05:21:03.250Z,14.01
2022-10-02T05:23:43.178Z,14.01
2022-10-02T05:26:31.698Z,14.03
2022-10-02T05:29:12.857Z,14.02
2022-10-02T05:31:54.949Z,14.03
2022-10-02T05:34:38.900Z,14.04
2022-10-02T05:37:21.753Z,14.03
2022-10-02T05:39:57.426Z,14.07
2022-10-02T05:42:27.653Z,14.07
2022-10-02T05:45:05.114Z,14.08
2022-10-02T05:47:37.462Z,14.13
2022-10-02T05:50:16.856Z,14.16
2022-10-02T05:52:59.622Z,14.20
2022-10-02T05:55:33.181Z,14.24
2022-10-02T05:58:08.224Z,14.27
2022-10-02T07:27:19.794Z,14.10
2022-10-02T07:36:06.526Z,13.99
2022-10-02T07:38:58.856Z,14.00
2022-10-02T07:44:59.265Z,13.96
2022-10-02T08:25:56.427Z,14.27
2022-10-02T08:35:36.062Z,14.32
2022-10-02T09:03:33.968Z,15.17
2022-10-02T09:06:34.415Z,15.24
2022-10-02T09:13:11.927Z,15.32
2022-10-02T09:29:04.312Z,15.48
2022-10-02T09:38:29.805Z,15.60
2022-10-02T09:44:49.821Z,15.68
2022-10-02T09:51:18.824Z,15.84
2022-10-02T09:54:22.519Z,15.94
2022-10-02T09:57:17.655Z,16.09
2022-10-02T10:00:33.890Z,16.22
2022-10-02T10:03:55.887Z,16.29
2022-10-02T10:06:57.975Z,16.40
2022-10-02T10:09:58.127Z,16.57
2022-10-02T10:13:01.101Z,16.81
2022-10-02T10:15:53.634Z,17.02
2022-10-02T10:18:56.550Z,17.15
2022-10-02T10:22:07.867Z,17.51
2022-10-02T10:25:03.987Z,17.83
2022-10-02T10:28:10.141Z,18.09
2022-10-02T10:31:10.142Z,18.43
2022-10-02T10:34:09.466Z,18.74
2022-10-02T10:37:10.315Z,18.84
2022-10-02T10:40:21.191Z,18.84
2022-10-02T10:43:24.030Z,18.94
2022-10-02T10:46:28.041Z,18.81
2022-10-02T10:49:44.224Z,18.75
2022-10-02T10:52:33.029Z,18.89
2022-10-02T10:55:36.039Z,19.26
2022-10-02T10:58:21.949Z,19.57
2022-10-02T11:01:01.618Z,19.83
2022-10-02T11:04:18.435Z,20.02
2022-10-02T11:07:16.297Z,20.15
2022-10-02T11:10:14.198Z,20.21
2022-10-02T11:13:09.533Z,20.26
2022-10-02T11:16:18.820Z,20.33
2022-10-02T11:19:00.945Z,20.34
2022-10-02T11:22:01.417Z,20.34
2022-10-02T11:28:39.930Z,20.32
2022-10-02T11:31:42.950Z,20.44
2022-10-02T11:34:40.144Z,20.41
2022-10-02T11:37:24.157Z,20.24
2022-10-02T11:40:22.763Z,20.07
2022-10-02T11:43:14.034Z,20.02
2022-10-02T11:46:05.887Z,19.91
2022-10-02T11:49:05.703Z,19.82
2022-10-02T11:52:20.312Z,19.69
2022-10-02T11:55:13.381Z,19.68
2022-10-02T11:57:54.675Z,19.70
2022-10-02T12:03:52.411Z,19.68
2022-10-02T12:06:42.182Z,19.63
2022-10-02T12:09:14.103Z,19.60
2022-10-02T12:11:51.180Z,19.53
2022-10-02T12:14:36.395Z,19.42
2022-10-02T12:17:34.665Z,19.33
2022-10-02T12:20:31.002Z,19.27
2022-10-02T12:23:25.364Z,19.24
2022-10-02T12:26:17.308Z,19.19
2022-10-02T12:28:56.839Z,19.11
2022-10-02T12:31:32.202Z,18.98
2022-10-02T12:34:04.298Z,18.85
2022-10-02T12:36:56.396Z,18.76
2022-10-02T12:39:40.098Z,18.60
2022-10-02T12:42:20.987Z,18.49
2022-10-02T12:45:13.731Z,18.42
2022-10-02T12:48:00.310Z,18.32
2022-10-02T14:34:10.691Z,18.72
2022-10-02T15:36:19.596Z,18.56
2022-10-02T15:39:34.407Z,18.55
2022-10-02T16:01:18.738Z,18.03
2022-10-02T16:04:07.605Z,18.02
2022-10-02T16:06:53.521Z,18.02
2022-10-02T16:09:42.068Z,18.04
2022-10-02T16:12:36.777Z,18.06
2022-10-02T16:15:15.464Z,17.81
2022-10-02T16:18:18.742Z,17.46
2022-10-02T16:21:06.481Z,17.18
2022-10-02T16:23:46.729Z,16.97
2022-10-02T16:26:26.448Z,16.82
2022-10-02T16:29:08.742Z,16.71
2022-10-02T16:32:01.335Z,16.55
2022-10-02T16:34:43.096Z,16.44
2022-10-02T16:37:23.071Z,16.37
2022-10-02T16:40:00.098Z,16.31
2022-10-02T16:42:40.746Z,16.20
2022-10-02T16:45:49.129Z,16.10
2022-10-02T16:48:22.416Z,15.96
2022-10-02T16:51:15.059Z,15.96
2022-10-02T16:53:51.713Z,15.99
2022-10-02T16:56:25.348Z,15.97
2022-10-02T16:59:01.571Z,15.89
2022-10-02T17:01:34.172Z,15.83
2022-10-02T17:04:17.514Z,15.87
2022-10-02T17:06:50.025Z,15.86
2022-10-02T17:09:30.736Z,15.76
2022-10-02T17:12:08.270Z,15.69
2022-10-02T17:14:45.041Z,15.64
2022-10-02T17:17:20.934Z,15.59
2022-10-02T17:19:55.546Z,15.52
2022-10-02T17:22:35.568Z,15.48
2022-10-02T17:25:14.799Z,15.47
2022-10-02T17:27:48.561Z,15.42
2022-10-02T17:30:21.049Z,15.40
2022-10-02T17:32:50.327Z,15.38
2022-10-02T17:35:31.906Z,15.36
2022-10-02T17:38:47.822Z,15.35
2022-10-02T17:41:33.390Z,15.31
2022-10-02T17:44:11.040Z,15.31
2022-10-02T17:46:59.772Z,15.37
2022-10-02T17:49:36.865Z,15.39
2022-10-02T17:52:36.708Z,15.42
2022-10-02T17:55:36.713Z,15.39
2022-10-02T17:58:17.367Z,15.38
2022-10-02T18:00:59.083Z,15.39
2022-10-02T18:03:40.781Z,15.41
2022-10-02T18:06:17.134Z,15.37
2022-10-02T18:09:09.139Z,15.36
2022-10-02T18:12:02.730Z,15.38
2022-10-02T18:14:55.136Z,15.38
2022-10-02T18:17:33.011Z,15.38
2022-10-02T18:20:11.380Z,15.40
2022-10-02T18:22:55.612Z,15.41
2022-10-02T18:25:41.670Z,15.40
2022-10-02T18:28:26.149Z,15.43
2022-10-02T18:31:09.176Z,15.44
2022-10-02T18:34:06.881Z,15.46
2022-10-02T18:36:50.085Z,15.45
2022-10-02T18:39:23.351Z,15.46
2022-10-02T18:41:56.215Z,15.49
2022-10-02T18:44:38.259Z,15.50
2022-10-02T18:47:12.655Z,15.45
2022-10-02T18:49:54.909Z,15.46
2022-10-02T18:52:43.906Z,15.47
2022-10-02T18:55:24.501Z,15.48
2022-10-02T18:58:07.353Z,15.49
2022-10-02T19:01:01.842Z,15.45
2022-10-02T19:03:39.070Z,15.42
2022-10-02T19:06:13.799Z,15.45
2022-10-02T19:09:11.182Z,15.49
2022-10-02T19:11:44.261Z,15.47
2022-10-02T19:14:14.753Z,15.44
2022-10-02T19:16:57.614Z,15.43
2022-10-02T19:19:27.860Z,15.36
2022-10-02T19:21:59.463Z,15.32
2022-10-02T19:24:31.223Z,15.35
2022-10-02T19:27:04.492Z,15.33
2022-10-02T19:29:36.777Z,15.28
2022-10-02T19:32:12.777Z,15.32
2022-10-02T19:34:42.314Z,15.34
2022-10-02T19:37:14.416Z,15.31
2022-10-02T19:39:49.594Z,15.29
2022-10-02T19:42:22.030Z,15.30
2022-10-02T19:44:53.453Z,15.32
2022-10-02T19:47:30.146Z,15.32
2022-10-02T19:50:01.413Z,15.34
2022-10-02T19:52:34.534Z,15.35
2022-10-02T19:55:04.559Z,15.33
2022-10-02T19:57:35.239Z,15.28
2022-10-02T20:00:03.185Z,15.25
2022-10-02T20:02:36.087Z,15.22
2022-10-02T20:05:07.963Z,15.20
2022-10-02T20:07:38.569Z,15.14
2022-10-02T20:10:15.157Z,15.10
2022-10-02T20:12:48.403Z,15.04
2022-10-02T20:15:40.016Z,14.98
2022-10-02T20:18:07.662Z,14.91
2022-10-02T20:20:37.209Z,14.87
2022-10-02T20:23:10.278Z,14.85
2022-10-02T20:25:42.261Z,14.81
2022-10-02T20:28:16.022Z,14.75
2022-10-02T20:30:49.276Z,14.74
2022-10-02T20:33:21.110Z,14.78
2022-10-02T20:35:54.553Z,14.77
2022-10-02T20:38:28.036Z,14.82
2022-10-02T20:40:58.279Z,14.85
2022-10-02T20:43:32.817Z,14.90
2022-10-02T20:46:16.003Z,14.94
2022-10-02T20:49:09.465Z,14.96
2022-10-02T20:52:10.259Z,14.98
2022-10-02T20:54:48.641Z,15.00
2022-10-02T20:58:00.587Z,15.03
2022-10-02T21:00:39.613Z,14.99
2022-10-02T21:03:51.760Z,15.01
2022-10-02T21:06:32.136Z,15.02
2022-10-02T21:09:34.584Z,15.04
2022-10-02T21:12:29.343Z,15.02
2022-10-02T21:15:29.663Z,14.93
2022-10-02T21:18:21.095Z,14.82
2022-10-02T21:21:20.255Z,14.70
2022-10-02T21:24:26.482Z,14.61
2022-10-02T21:27:31.101Z,14.54
2022-10-02T21:30:11.572Z,14.49
2022-10-02T21:33:04.602Z,14.42
2022-10-02T21:35:38.734Z,14.39
2022-10-02T21:38:27.816Z,14.40
2022-10-02T21:41:39.673Z,14.36
2022-10-02T21:44:59.237Z,14.34
2022-10-02T21:48:04.479Z,14.33
2022-10-02T21:51:12.023Z,14.37
2022-10-02T21:54:27.680Z,14.41
2022-10-02T21:57:21.897Z,14.43
2022-10-02T22:00:17.401Z,14.44
2022-10-02T22:03:25.457Z,14.47
2022-10-02T22:06:21.067Z,14.49
2022-10-02T22:09:03.808Z,14.46
2022-10-02T22:11:39.577Z,14.48
2022-10-02T22:14:11.633Z,14.47
2022-10-02T22:16:51.752Z,14.51
2022-10-02T22:19:31.150Z,14.49
2022-10-02T22:22:12.909Z,14.48
2022-10-02T22:24:57.200Z,14.44
2022-10-02T22:27:46.239Z,14.39
2022-10-02T22:30:23.036Z,14.35
2022-10-02T22:33:12.284Z,14.36
2022-10-02T22:36:01.113Z,14.37
2022-10-02T22:38:34.882Z,14.37
2022-10-02T22:41:08.192Z,14.38
2022-10-02T22:43:44.678Z,14.44
2022-10-02T22:46:26.322Z,14.47
2022-10-02T22:49:01.009Z,14.46
2022-10-02T22:51:38.625Z,14.43
2022-10-02T22:54:19.139Z,14.46
2022-10-02T22:56:55.124Z,14.49
2022-10-02T22:59:29.755Z,14.52
2022-10-02T23:02:04.764Z,14.58
2022-10-02T23:04:39.614Z,14.60
2022-10-02T23:07:14.350Z,14.57
2022-10-02T23:09:49.461Z,14.53
2022-10-02T23:12:25.453Z,14.54
2022-10-02T23:15:03.101Z,14.57
2022-10-02T23:17:38.281Z,14.57
2022-10-02T23:20:15.763Z,14.59
2022-10-02T23:22:51.402Z,14.62
2022-10-02T23:25:23.690Z,14.59
2022-10-02T23:27:58.766Z,14.57
2022-10-02T23:30:25.658Z,14.56
2022-10-02T23:33:00.022Z,14.56
2022-10-02T23:35:36.056Z,14.53
2022-10-02T23:38:12.599Z,14.53
2022-10-02T23:41:18.446Z,14.48
2022-10-02T23:43:54.407Z,14.43
2022-10-02T23:46:28.258Z,14.42
2022-10-02T23:48:56.093Z,14.39
2022-10-02T23:51:33.868Z,14.40
2022-10-02T23:54:24.586Z,14.43
2022-10-02T23:57:17.549Z,14.41
